sensor_id;sensor_type;location;lat;lon;timestamp;P1;durP1;ratioP1;P2;durP2;ratioP2
12202;SDS011;6164;42.178;24.622;2023-04-24T00:01:12;9.57;;;5.80;;
12202;SDS011;6164;42.178;24.622;2023-04-24T00:03:40;7.07;;;6.13;;
12202;SDS011;6164;42.178;24.622;2023-04-24T00:06:07;6.60;;;5.63;;
12202;SDS011;6164;42.178;24.622;2023-04-24T00:08:35;9.48;;;6.32;;
12202;SDS011;6164;42.178;24.622;2023-04-24T00:11:02;7.20;;;5.93;;
12202;SDS011;6164;42.178;24.622;2023-04-24T00:13:29;6.97;;;5.82;;
12202;SDS011;6164;42.178;24.622;2023-04-24T00:15:56;8.73;;;6.03;;
12202;SDS011;6164;42.178;24.622;2023-04-24T00:18:22;7.47;;;5.65;;
12202;SDS011;6164;42.178;24.622;2023-04-24T00:20:49;7.53;;;5.50;;
12202;SDS011;6164;42.178;24.622;2023-04-24T00:23:16;6.90;;;5.82;;
12202;SDS011;6164;42.178;24.622;2023-04-24T00:25:44;8.32;;;5.50;;
12202;SDS011;6164;42.178;24.622;2023-04-24T00:28:10;7.82;;;5.78;;
12202;SDS011;6164;42.178;24.622;2023-04-24T00:30:37;8.52;;;5.70;;
12202;SDS011;6164;42.178;24.622;2023-04-24T00:33:04;9.10;;;6.03;;
12202;SDS011;6164;42.178;24.622;2023-04-24T00:35:31;7.57;;;5.88;;
12202;SDS011;6164;42.178;24.622;2023-04-24T00:37:57;7.55;;;6.18;;
12202;SDS011;6164;42.178;24.622;2023-04-24T00:40:24;7.10;;;5.72;;
12202;SDS011;6164;42.178;24.622;2023-04-24T00:42:52;8.48;;;6.13;;
12202;SDS011;6164;42.178;24.622;2023-04-24T00:45:19;7.50;;;5.53;;
12202;SDS011;6164;42.178;24.622;2023-04-24T00:47:46;7.85;;;5.97;;
12202;SDS011;6164;42.178;24.622;2023-04-24T00:50:14;10.40;;;6.10;;
12202;SDS011;6164;42.178;24.622;2023-04-24T00:52:42;8.75;;;6.40;;
12202;SDS011;6164;42.178;24.622;2023-04-24T00:55:09;7.13;;;6.32;;
12202;SDS011;6164;42.178;24.622;2023-04-24T00:57:36;10.88;;;6.38;;
12202;SDS011;6164;42.178;24.622;2023-04-24T01:00:05;7.82;;;6.25;;
12202;SDS011;6164;42.178;24.622;2023-04-24T01:02:36;6.70;;;5.65;;
12202;SDS011;6164;42.178;24.622;2023-04-24T01:05:09;8.60;;;5.80;;
12202;SDS011;6164;42.178;24.622;2023-04-24T01:07:36;7.43;;;5.85;;
12202;SDS011;6164;42.178;24.622;2023-04-24T01:10:05;10.15;;;5.80;;
12202;SDS011;6164;42.178;24.622;2023-04-24T01:12:33;7.07;;;6.18;;
12202;SDS011;6164;42.178;24.622;2023-04-24T01:15:00;7.30;;;5.32;;
12202;SDS011;6164;42.178;24.622;2023-04-24T01:17:28;9.13;;;5.32;;
12202;SDS011;6164;42.178;24.622;2023-04-24T01:19:56;8.68;;;5.65;;
12202;SDS011;6164;42.178;24.622;2023-04-24T01:22:24;10.63;;;6.35;;
12202;SDS011;6164;42.178;24.622;2023-04-24T01:24:51;8.68;;;6.35;;
12202;SDS011;6164;42.178;24.622;2023-04-24T01:27:18;10.18;;;6.80;;
12202;SDS011;6164;42.178;24.622;2023-04-24T01:29:45;10.10;;;7.20;;
12202;SDS011;6164;42.178;24.622;2023-04-24T01:32:14;8.30;;;6.75;;
12202;SDS011;6164;42.178;24.622;2023-04-24T01:34:41;8.98;;;6.63;;
12202;SDS011;6164;42.178;24.622;2023-04-24T01:37:09;9.45;;;7.45;;
12202;SDS011;6164;42.178;24.622;2023-04-24T01:39:37;9.13;;;7.00;;
12202;SDS011;6164;42.178;24.622;2023-04-24T01:42:04;10.60;;;6.80;;
12202;SDS011;6164;42.178;24.622;2023-04-24T01:44:31;9.10;;;6.43;;
12202;SDS011;6164;42.178;24.622;2023-04-24T01:47:00;8.95;;;6.65;;
12202;SDS011;6164;42.178;24.622;2023-04-24T01:49:27;9.70;;;6.47;;
12202;SDS011;6164;42.178;24.622;2023-04-24T01:51:54;7.90;;;6.35;;
12202;SDS011;6164;42.178;24.622;2023-04-24T01:54:21;9.20;;;6.82;;
12202;SDS011;6164;42.178;24.622;2023-04-24T01:56:49;9.05;;;6.68;;
12202;SDS011;6164;42.178;24.622;2023-04-24T01:59:16;9.55;;;6.72;;
12202;SDS011;6164;42.178;24.622;2023-04-24T02:01:43;8.85;;;6.70;;
12202;SDS011;6164;42.178;24.622;2023-04-24T02:04:10;8.52;;;6.60;;
12202;SDS011;6164;42.178;24.622;2023-04-24T02:06:36;9.07;;;7.03;;
12202;SDS011;6164;42.178;24.622;2023-04-24T02:09:03;6.93;;;6.22;;
12202;SDS011;6164;42.178;24.622;2023-04-24T02:11:30;8.45;;;6.78;;
12202;SDS011;6164;42.178;24.622;2023-04-24T02:13:58;9.27;;;6.95;;
12202;SDS011;6164;42.178;24.622;2023-04-24T02:16:25;8.13;;;6.68;;
12202;SDS011;6164;42.178;24.622;2023-04-24T02:18:51;9.43;;;6.85;;
12202;SDS011;6164;42.178;24.622;2023-04-24T02:21:18;12.88;;;7.57;;
12202;SDS011;6164;42.178;24.622;2023-04-24T02:23:45;8.35;;;7.00;;
12202;SDS011;6164;42.178;24.622;2023-04-24T02:26:11;6.80;;;6.10;;
12202;SDS011;6164;42.178;24.622;2023-04-24T02:28:38;9.82;;;6.82;;
12202;SDS011;6164;42.178;24.622;2023-04-24T02:31:06;10.10;;;7.07;;
12202;SDS011;6164;42.178;24.622;2023-04-24T02:33:33;11.85;;;6.68;;
12202;SDS011;6164;42.178;24.622;2023-04-24T02:36:00;12.77;;;7.43;;
12202;SDS011;6164;42.178;24.622;2023-04-24T02:38:27;9.10;;;6.85;;
12202;SDS011;6164;42.178;24.622;2023-04-24T02:40:54;8.85;;;6.90;;
12202;SDS011;6164;42.178;24.622;2023-04-24T02:43:21;10.77;;;7.43;;
12202;SDS011;6164;42.178;24.622;2023-04-24T02:45:48;18.98;;;8.88;;
12202;SDS011;6164;42.178;24.622;2023-04-24T02:48:16;15.93;;;7.72;;
12202;SDS011;6164;42.178;24.622;2023-04-24T02:50:43;22.38;;;7.85;;
12202;SDS011;6164;42.178;24.622;2023-04-24T02:53:10;10.90;;;7.93;;
12202;SDS011;6164;42.178;24.622;2023-04-24T02:55:37;19.67;;;7.15;;
12202;SDS011;6164;42.178;24.622;2023-04-24T02:58:03;9.82;;;7.13;;
12202;SDS011;6164;42.178;24.622;2023-04-24T03:00:31;8.02;;;6.30;;
12202;SDS011;6164;42.178;24.622;2023-04-24T03:02:57;11.80;;;7.13;;
12202;SDS011;6164;42.178;24.622;2023-04-24T03:05:26;7.78;;;6.57;;
12202;SDS011;6164;42.178;24.622;2023-04-24T03:07:53;11.65;;;6.78;;
12202;SDS011;6164;42.178;24.622;2023-04-24T03:10:19;10.43;;;7.00;;
12202;SDS011;6164;42.178;24.622;2023-04-24T03:12:47;8.77;;;6.65;;
12202;SDS011;6164;42.178;24.622;2023-04-24T03:15:14;11.90;;;6.82;;
12202;SDS011;6164;42.178;24.622;2023-04-24T03:17:41;11.23;;;7.20;;
12202;SDS011;6164;42.178;24.622;2023-04-24T03:20:08;13.02;;;7.25;;
12202;SDS011;6164;42.178;24.622;2023-04-24T03:22:36;11.50;;;6.93;;
12202;SDS011;6164;42.178;24.622;2023-04-24T03:25:03;13.27;;;7.47;;
12202;SDS011;6164;42.178;24.622;2023-04-24T03:27:31;16.50;;;7.85;;
12202;SDS011;6164;42.178;24.622;2023-04-24T03:29:58;14.70;;;7.45;;
12202;SDS011;6164;42.178;24.622;2023-04-24T03:32:25;11.38;;;7.05;;
12202;SDS011;6164;42.178;24.622;2023-04-24T03:34:52;11.73;;;7.47;;
12202;SDS011;6164;42.178;24.622;2023-04-24T03:37:19;18.98;;;7.78;;
12202;SDS011;6164;42.178;24.622;2023-04-24T03:39:47;10.18;;;7.88;;
12202;SDS011;6164;42.178;24.622;2023-04-24T03:42:14;14.02;;;8.57;;
12202;SDS011;6164;42.178;24.622;2023-04-24T03:44:40;10.02;;;8.10;;
12202;SDS011;6164;42.178;24.622;2023-04-24T03:47:07;10.13;;;7.95;;
12202;SDS011;6164;42.178;24.622;2023-04-24T03:49:34;13.90;;;9.15;;
12202;SDS011;6164;42.178;24.622;2023-04-24T03:52:01;13.25;;;8.93;;
12202;SDS011;6164;42.178;24.622;2023-04-24T03:54:28;14.45;;;9.10;;
12202;SDS011;6164;42.178;24.622;2023-04-24T03:56:56;14.07;;;9.52;;
12202;SDS011;6164;42.178;24.622;2023-04-24T03:59:23;11.70;;;9.60;;
12202;SDS011;6164;42.178;24.622;2023-04-24T04:01:49;11.13;;;9.27;;
12202;SDS011;6164;42.178;24.622;2023-04-24T04:04:16;11.90;;;10.13;;
12202;SDS011;6164;42.178;24.622;2023-04-24T04:06:43;12.73;;;9.55;;
12202;SDS011;6164;42.178;24.622;2023-04-24T04:09:11;15.50;;;9.48;;
12202;SDS011;6164;42.178;24.622;2023-04-24T04:11:38;11.82;;;8.65;;
12202;SDS011;6164;42.178;24.622;2023-04-24T04:14:06;10.18;;;8.75;;
12202;SDS011;6164;42.178;24.622;2023-04-24T04:16:32;9.73;;;8.25;;
12202;SDS011;6164;42.178;24.622;2023-04-24T04:19:01;9.45;;;7.95;;
12202;SDS011;6164;42.178;24.622;2023-04-24T04:21:28;11.57;;;8.15;;
12202;SDS011;6164;42.178;24.622;2023-04-24T04:23:56;10.18;;;7.82;;
12202;SDS011;6164;42.178;24.622;2023-04-24T04:26:23;9.30;;;8.30;;
12202;SDS011;6164;42.178;24.622;2023-04-24T04:28:50;9.85;;;7.95;;
12202;SDS011;6164;42.178;24.622;2023-04-24T04:31:19;8.88;;;7.93;;
12202;SDS011;6164;42.178;24.622;2023-04-24T04:33:47;15.98;;;8.90;;
12202;SDS011;6164;42.178;24.622;2023-04-24T04:36:13;16.83;;;8.20;;
12202;SDS011;6164;42.178;24.622;2023-04-24T04:38:42;8.93;;;7.65;;
12202;SDS011;6164;42.178;24.622;2023-04-24T04:41:09;9.57;;;7.50;;
12202;SDS011;6164;42.178;24.622;2023-04-24T04:43:36;9.70;;;7.65;;
12202;SDS011;6164;42.178;24.622;2023-04-24T04:46:04;10.98;;;7.28;;
12202;SDS011;6164;42.178;24.622;2023-04-24T04:48:34;11.50;;;6.95;;
12202;SDS011;6164;42.178;24.622;2023-04-24T04:51:01;11.70;;;7.57;;
12202;SDS011;6164;42.178;24.622;2023-04-24T04:53:27;10.45;;;6.90;;
12202;SDS011;6164;42.178;24.622;2023-04-24T04:55:54;20.45;;;8.13;;
12202;SDS011;6164;42.178;24.622;2023-04-24T04:58:21;12.15;;;7.45;;
12202;SDS011;6164;42.178;24.622;2023-04-24T05:00:48;11.43;;;7.40;;
12202;SDS011;6164;42.178;24.622;2023-04-24T05:03:14;11.30;;;7.63;;
12202;SDS011;6164;42.178;24.622;2023-04-24T05:05:42;11.70;;;7.28;;
12202;SDS011;6164;42.178;24.622;2023-04-24T05:08:09;14.10;;;6.93;;
12202;SDS011;6164;42.178;24.622;2023-04-24T05:10:36;10.45;;;7.30;;
12202;SDS011;6164;42.178;24.622;2023-04-24T05:13:02;8.40;;;7.20;;
12202;SDS011;6164;42.178;24.622;2023-04-24T05:15:29;10.00;;;7.55;;
12202;SDS011;6164;42.178;24.622;2023-04-24T05:17:56;9.07;;;7.40;;
12202;SDS011;6164;42.178;24.622;2023-04-24T05:20:23;8.05;;;6.90;;
12202;SDS011;6164;42.178;24.622;2023-04-24T05:22:51;8.50;;;7.47;;
12202;SDS011;6164;42.178;24.622;2023-04-24T05:25:18;13.35;;;7.30;;
12202;SDS011;6164;42.178;24.622;2023-04-24T05:27:45;10.50;;;7.22;;
12202;SDS011;6164;42.178;24.622;2023-04-24T05:30:12;19.40;;;8.35;;
12202;SDS011;6164;42.178;24.622;2023-04-24T05:32:40;8.85;;;7.15;;
12202;SDS011;6164;42.178;24.622;2023-04-24T05:35:07;12.23;;;7.97;;
12202;SDS011;6164;42.178;24.622;2023-04-24T05:37:34;11.40;;;7.45;;
12202;SDS011;6164;42.178;24.622;2023-04-24T05:40:02;15.10;;;8.13;;
12202;SDS011;6164;42.178;24.622;2023-04-24T05:42:30;10.25;;;7.45;;
12202;SDS011;6164;42.178;24.622;2023-04-24T05:44:57;15.70;;;8.18;;
12202;SDS011;6164;42.178;24.622;2023-04-24T05:47:24;10.52;;;7.80;;
12202;SDS011;6164;42.178;24.622;2023-04-24T05:49:51;16.85;;;7.15;;
12202;SDS011;6164;42.178;24.622;2023-04-24T05:52:18;16.35;;;7.72;;
12202;SDS011;6164;42.178;24.622;2023-04-24T05:54:45;8.60;;;7.55;;
12202;SDS011;6164;42.178;24.622;2023-04-24T05:57:13;11.85;;;8.30;;
12202;SDS011;6164;42.178;24.622;2023-04-24T05:59:40;13.05;;;9.57;;
12202;SDS011;6164;42.178;24.622;2023-04-24T06:02:07;23.77;;;10.10;;
12202;SDS011;6164;42.178;24.622;2023-04-24T06:04:33;19.42;;;10.82;;
12202;SDS011;6164;42.178;24.622;2023-04-24T06:07:00;15.70;;;11.38;;
12202;SDS011;6164;42.178;24.622;2023-04-24T06:09:27;13.88;;;10.35;;
12202;SDS011;6164;42.178;24.622;2023-04-24T06:11:54;13.30;;;8.70;;
12202;SDS011;6164;42.178;24.622;2023-04-24T06:14:23;11.23;;;8.35;;
12202;SDS011;6164;42.178;24.622;2023-04-24T06:16:49;12.55;;;7.45;;
12202;SDS011;6164;42.178;24.622;2023-04-24T06:19:16;13.25;;;7.82;;
12202;SDS011;6164;42.178;24.622;2023-04-24T06:21:43;10.93;;;7.35;;
12202;SDS011;6164;42.178;24.622;2023-04-24T06:24:10;9.95;;;7.95;;
12202;SDS011;6164;42.178;24.622;2023-04-24T06:26:37;11.05;;;7.47;;
12202;SDS011;6164;42.178;24.622;2023-04-24T06:29:06;10.45;;;6.97;;
12202;SDS011;6164;42.178;24.622;2023-04-24T06:31:34;22.23;;;7.15;;
12202;SDS011;6164;42.178;24.622;2023-04-24T06:34:02;18.13;;;7.00;;
12202;SDS011;6164;42.178;24.622;2023-04-24T06:36:28;9.13;;;6.82;;
12202;SDS011;6164;42.178;24.622;2023-04-24T06:38:56;15.20;;;7.13;;
12202;SDS011;6164;42.178;24.622;2023-04-24T06:41:23;10.65;;;7.10;;
12202;SDS011;6164;42.178;24.622;2023-04-24T06:43:50;7.95;;;6.97;;
12202;SDS011;6164;42.178;24.622;2023-04-24T06:46:16;14.75;;;7.50;;
12202;SDS011;6164;42.178;24.622;2023-04-24T06:48:44;11.93;;;7.15;;
12202;SDS011;6164;42.178;24.622;2023-04-24T06:51:11;8.90;;;7.43;;
12202;SDS011;6164;42.178;24.622;2023-04-24T06:53:38;11.32;;;7.25;;
12202;SDS011;6164;42.178;24.622;2023-04-24T06:56:04;11.93;;;8.38;;
12202;SDS011;6164;42.178;24.622;2023-04-24T06:58:31;13.55;;;8.25;;
12202;SDS011;6164;42.178;24.622;2023-04-24T07:00:58;10.65;;;8.43;;
12202;SDS011;6164;42.178;24.622;2023-04-24T07:03:25;12.60;;;8.65;;
12202;SDS011;6164;42.178;24.622;2023-04-24T07:05:53;11.70;;;7.93;;
12202;SDS011;6164;42.178;24.622;2023-04-24T07:08:21;11.82;;;7.38;;
12202;SDS011;6164;42.178;24.622;2023-04-24T07:10:48;11.23;;;7.72;;
12202;SDS011;6164;42.178;24.622;2023-04-24T07:13:15;11.68;;;7.82;;
12202;SDS011;6164;42.178;24.622;2023-04-24T07:15:42;16.25;;;8.00;;
12202;SDS011;6164;42.178;24.622;2023-04-24T07:18:09;11.63;;;8.88;;
12202;SDS011;6164;42.178;24.622;2023-04-24T07:20:36;10.02;;;8.10;;
12202;SDS011;6164;42.178;24.622;2023-04-24T07:23:04;14.07;;;8.52;;
12202;SDS011;6164;42.178;24.622;2023-04-24T07:25:30;9.82;;;8.05;;
12202;SDS011;6164;42.178;24.622;2023-04-24T07:27:57;11.90;;;8.05;;
12202;SDS011;6164;42.178;24.622;2023-04-24T07:30:24;13.98;;;8.60;;
12202;SDS011;6164;42.178;24.622;2023-04-24T07:32:51;10.10;;;7.60;;
12202;SDS011;6164;42.178;24.622;2023-04-24T07:35:17;13.55;;;8.80;;
12202;SDS011;6164;42.178;24.622;2023-04-24T07:37:45;15.13;;;8.18;;
12202;SDS011;6164;42.178;24.622;2023-04-24T07:40:13;15.55;;;8.60;;
12202;SDS011;6164;42.178;24.622;2023-04-24T07:42:40;11.55;;;8.82;;
12202;SDS011;6164;42.178;24.622;2023-04-24T07:45:06;9.93;;;8.38;;
12202;SDS011;6164;42.178;24.622;2023-04-24T07:47:33;12.73;;;8.90;;
12202;SDS011;6164;42.178;24.622;2023-04-24T07:50:01;15.05;;;9.50;;
12202;SDS011;6164;42.178;24.622;2023-04-24T07:52:28;12.88;;;9.02;;
12202;SDS011;6164;42.178;24.622;2023-04-24T07:54:55;16.25;;;8.73;;
12202;SDS011;6164;42.178;24.622;2023-04-24T07:57:26;11.15;;;8.52;;
12202;SDS011;6164;42.178;24.622;2023-04-24T07:59:53;16.83;;;8.30;;
12202;SDS011;6164;42.178;24.622;2023-04-24T08:02:20;11.13;;;8.82;;
12202;SDS011;6164;42.178;24.622;2023-04-24T08:04:51;11.60;;;8.05;;
12202;SDS011;6164;42.178;24.622;2023-04-24T08:07:18;13.30;;;8.98;;
12202;SDS011;6164;42.178;24.622;2023-04-24T08:09:44;14.77;;;9.13;;
12202;SDS011;6164;42.178;24.622;2023-04-24T08:12:11;10.63;;;9.02;;
12202;SDS011;6164;42.178;24.622;2023-04-24T08:14:39;15.45;;;9.50;;
12202;SDS011;6164;42.178;24.622;2023-04-24T08:17:06;10.35;;;8.60;;
12202;SDS011;6164;42.178;24.622;2023-04-24T08:19:33;13.35;;;8.88;;
12202;SDS011;6164;42.178;24.622;2023-04-24T08:22:00;12.10;;;9.00;;
12202;SDS011;6164;42.178;24.622;2023-04-24T08:24:27;12.60;;;8.82;;
12202;SDS011;6164;42.178;24.622;2023-04-24T08:26:54;12.63;;;9.20;;
12202;SDS011;6164;42.178;24.622;2023-04-24T08:29:22;14.57;;;9.80;;
12202;SDS011;6164;42.178;24.622;2023-04-24T08:31:50;10.32;;;9.18;;
12202;SDS011;6164;42.178;24.622;2023-04-24T08:34:16;13.57;;;9.25;;
12202;SDS011;6164;42.178;24.622;2023-04-24T08:36:43;14.32;;;9.68;;
12202;SDS011;6164;42.178;24.622;2023-04-24T08:39:10;12.38;;;8.90;;
12202;SDS011;6164;42.178;24.622;2023-04-24T08:41:37;16.30;;;9.15;;
12202;SDS011;6164;42.178;24.622;2023-04-24T08:44:04;9.55;;;8.40;;
12202;SDS011;6164;42.178;24.622;2023-04-24T08:46:31;10.55;;;8.95;;
12202;SDS011;6164;42.178;24.622;2023-04-24T08:49:00;21.30;;;9.00;;
12202;SDS011;6164;42.178;24.622;2023-04-24T08:51:28;10.65;;;8.45;;
12202;SDS011;6164;42.178;24.622;2023-04-24T08:53:55;16.27;;;9.43;;
12202;SDS011;6164;42.178;24.622;2023-04-24T08:56:23;19.65;;;8.80;;
12202;SDS011;6164;42.178;24.622;2023-04-24T08:58:51;14.90;;;8.23;;
12202;SDS011;6164;42.178;24.622;2023-04-24T09:01:17;13.75;;;8.05;;
12202;SDS011;6164;42.178;24.622;2023-04-24T09:03:46;17.00;;;7.68;;
12202;SDS011;6164;42.178;24.622;2023-04-24T09:06:16;10.88;;;7.57;;
12202;SDS011;6164;42.178;24.622;2023-04-24T09:08:44;9.27;;;6.75;;
12202;SDS011;6164;42.178;24.622;2023-04-24T09:11:12;12.18;;;6.90;;
12202;SDS011;6164;42.178;24.622;2023-04-24T09:13:38;13.25;;;7.30;;
12202;SDS011;6164;42.178;24.622;2023-04-24T09:16:05;9.45;;;7.53;;
12202;SDS011;6164;42.178;24.622;2023-04-24T09:18:32;11.30;;;7.32;;
12202;SDS011;6164;42.178;24.622;2023-04-24T09:21:00;10.35;;;7.60;;
12202;SDS011;6164;42.178;24.622;2023-04-24T09:23:30;10.80;;;7.30;;
12202;SDS011;6164;42.178;24.622;2023-04-24T09:25:58;8.57;;;7.07;;
12202;SDS011;6164;42.178;24.622;2023-04-24T09:28:27;12.18;;;7.25;;
12202;SDS011;6164;42.178;24.622;2023-04-24T09:31:03;11.05;;;7.18;;
12202;SDS011;6164;42.178;24.622;2023-04-24T09:33:31;24.63;;;7.85;;
12202;SDS011;6164;42.178;24.622;2023-04-24T09:35:58;9.05;;;6.72;;
12202;SDS011;6164;42.178;24.622;2023-04-24T09:38:36;9.25;;;7.07;;
12202;SDS011;6164;42.178;24.622;2023-04-24T09:41:07;11.52;;;6.82;;
12202;SDS011;6164;42.178;24.622;2023-04-24T09:43:35;11.30;;;6.07;;
12202;SDS011;6164;42.178;24.622;2023-04-24T09:46:04;10.38;;;6.75;;
12202;SDS011;6164;42.178;24.622;2023-04-24T09:48:32;7.57;;;6.35;;
12202;SDS011;6164;42.178;24.622;2023-04-24T09:51:00;11.77;;;6.13;;
12202;SDS011;6164;42.178;24.622;2023-04-24T09:53:28;9.25;;;5.72;;
12202;SDS011;6164;42.178;24.622;2023-04-24T09:55:58;7.05;;;6.00;;
12202;SDS011;6164;42.178;24.622;2023-04-24T09:58:28;7.72;;;6.25;;
12202;SDS011;6164;42.178;24.622;2023-04-24T10:00:56;6.80;;;6.10;;
12202;SDS011;6164;42.178;24.622;2023-04-24T10:03:23;11.70;;;6.88;;
12202;SDS011;6164;42.178;24.622;2023-04-24T10:05:52;11.13;;;6.18;;
12202;SDS011;6164;42.178;24.622;2023-04-24T10:08:20;13.20;;;6.53;;
12202;SDS011;6164;42.178;24.622;2023-04-24T10:10:47;6.85;;;5.47;;
12202;SDS011;6164;42.178;24.622;2023-04-24T10:13:15;10.40;;;6.55;;
12202;SDS011;6164;42.178;24.622;2023-04-24T10:15:42;9.40;;;6.05;;
12202;SDS011;6164;42.178;24.622;2023-04-24T10:18:10;8.15;;;6.38;;
12202;SDS011;6164;42.178;24.622;2023-04-24T10:20:38;8.27;;;6.30;;
12202;SDS011;6164;42.178;24.622;2023-04-24T10:23:05;9.15;;;6.20;;
12202;SDS011;6164;42.178;24.622;2023-04-24T10:25:33;8.27;;;6.07;;
12202;SDS011;6164;42.178;24.622;2023-04-24T10:28:02;8.60;;;6.43;;
12202;SDS011;6164;42.178;24.622;2023-04-24T10:30:31;8.20;;;6.45;;
12202;SDS011;6164;42.178;24.622;2023-04-24T10:33:01;8.77;;;6.30;;
12202;SDS011;6164;42.178;24.622;2023-04-24T10:35:30;14.50;;;6.32;;
12202;SDS011;6164;42.178;24.622;2023-04-24T10:37:58;13.77;;;6.82;;
12202;SDS011;6164;42.178;24.622;2023-04-24T10:40:30;7.72;;;6.80;;
12202;SDS011;6164;42.178;24.622;2023-04-24T10:42:57;8.68;;;6.95;;
12202;SDS011;6164;42.178;24.622;2023-04-24T10:45:25;9.35;;;7.13;;
12202;SDS011;6164;42.178;24.622;2023-04-24T10:47:54;9.15;;;6.97;;
12202;SDS011;6164;42.178;24.622;2023-04-24T10:50:23;8.63;;;6.43;;
12202;SDS011;6164;42.178;24.622;2023-04-24T10:52:52;9.02;;;7.25;;
12202;SDS011;6164;42.178;24.622;2023-04-24T10:58:12;18.85;;;8.25;;
12202;SDS011;6164;42.178;24.622;2023-04-24T11:00:43;11.20;;;6.80;;
12202;SDS011;6164;42.178;24.622;2023-04-24T11:03:24;9.48;;;6.72;;
12202;SDS011;6164;42.178;24.622;2023-04-24T11:05:53;11.23;;;6.53;;
12202;SDS011;6164;42.178;24.622;2023-04-24T11:08:24;11.52;;;7.22;;
12202;SDS011;6164;42.178;24.622;2023-04-24T11:10:56;15.43;;;7.85;;
12202;SDS011;6164;42.178;24.622;2023-04-24T11:16:31;12.90;;;6.97;;
12202;SDS011;6164;42.178;24.622;2023-04-24T11:19:02;7.85;;;6.50;;
12202;SDS011;6164;42.178;24.622;2023-04-24T11:21:38;7.45;;;6.60;;
12202;SDS011;6164;42.178;24.622;2023-04-24T11:24:26;7.95;;;7.10;;
12202;SDS011;6164;42.178;24.622;2023-04-24T11:26:54;14.60;;;7.15;;
12202;SDS011;6164;42.178;24.622;2023-04-24T11:29:23;11.55;;;7.05;;
12202;SDS011;6164;42.178;24.622;2023-04-24T11:32:14;10.82;;;6.75;;
12202;SDS011;6164;42.178;24.622;2023-04-24T11:34:46;8.25;;;6.75;;
12202;SDS011;6164;42.178;24.622;2023-04-24T11:37:13;8.35;;;6.18;;
12202;SDS011;6164;42.178;24.622;2023-04-24T11:39:41;10.55;;;6.07;;
12202;SDS011;6164;42.178;24.622;2023-04-24T11:42:10;7.80;;;6.45;;
12202;SDS011;6164;42.178;24.622;2023-04-24T11:44:40;12.50;;;6.60;;
12202;SDS011;6164;42.178;24.622;2023-04-24T11:47:07;12.07;;;5.90;;
12202;SDS011;6164;42.178;24.622;2023-04-24T11:49:36;9.23;;;6.53;;
12202;SDS011;6164;42.178;24.622;2023-04-24T11:52:04;7.70;;;6.10;;
12202;SDS011;6164;42.178;24.622;2023-04-24T11:54:31;13.88;;;6.07;;
12202;SDS011;6164;42.178;24.622;2023-04-24T11:56:58;8.80;;;5.70;;
12202;SDS011;6164;42.178;24.622;2023-04-24T11:59:25;6.93;;;5.15;;
12202;SDS011;6164;42.178;24.622;2023-04-24T12:01:52;9.35;;;5.68;;
12202;SDS011;6164;42.178;24.622;2023-04-24T12:04:18;9.15;;;5.80;;
12202;SDS011;6164;42.178;24.622;2023-04-24T12:07:01;9.50;;;5.72;;
12202;SDS011;6164;42.178;24.622;2023-04-24T12:09:32;9.15;;;5.22;;
12202;SDS011;6164;42.178;24.622;2023-04-24T12:12:10;6.25;;;5.60;;
12202;SDS011;6164;42.178;24.622;2023-04-24T12:14:44;8.82;;;5.35;;
12202;SDS011;6164;42.178;24.622;2023-04-24T12:17:14;7.55;;;5.57;;
12202;SDS011;6164;42.178;24.622;2023-04-24T12:19:44;10.45;;;5.72;;
12202;SDS011;6164;42.178;24.622;2023-04-24T12:22:15;6.88;;;5.45;;
12202;SDS011;6164;42.178;24.622;2023-04-24T12:24:59;12.52;;;5.43;;
12202;SDS011;6164;42.178;24.622;2023-04-24T12:27:29;8.55;;;5.55;;
12202;SDS011;6164;42.178;24.622;2023-04-24T12:29:58;7.03;;;5.25;;
12202;SDS011;6164;42.178;24.622;2023-04-24T12:32:28;6.10;;;5.00;;
12202;SDS011;6164;42.178;24.622;2023-04-24T12:34:55;11.48;;;5.20;;
12202;SDS011;6164;42.178;24.622;2023-04-24T12:37:23;6.82;;;4.70;;
12202;SDS011;6164;42.178;24.622;2023-04-24T12:40:03;7.43;;;5.20;;
12202;SDS011;6164;42.178;24.622;2023-04-24T12:42:35;8.45;;;5.38;;
12202;SDS011;6164;42.178;24.622;2023-04-24T12:45:07;5.82;;;4.13;;
12202;SDS011;6164;42.178;24.622;2023-04-24T12:47:37;10.57;;;4.72;;
12202;SDS011;6164;42.178;24.622;2023-04-24T12:50:04;11.02;;;4.90;;
12202;SDS011;6164;42.178;24.622;2023-04-24T12:52:34;9.38;;;5.00;;
12202;SDS011;6164;42.178;24.622;2023-04-24T12:55:03;6.22;;;4.43;;
12202;SDS011;6164;42.178;24.622;2023-04-24T12:57:33;10.88;;;4.72;;
12202;SDS011;6164;42.178;24.622;2023-04-24T13:00:00;6.30;;;4.60;;
12202;SDS011;6164;42.178;24.622;2023-04-24T13:02:28;6.68;;;4.97;;
12202;SDS011;6164;42.178;24.622;2023-04-24T13:04:56;6.47;;;4.63;;
12202;SDS011;6164;42.178;24.622;2023-04-24T13:07:23;5.72;;;5.00;;
12202;SDS011;6164;42.178;24.622;2023-04-24T13:09:51;7.68;;;4.57;;
12202;SDS011;6164;42.178;24.622;2023-04-24T13:12:19;6.63;;;4.88;;
12202;SDS011;6164;42.178;24.622;2023-04-24T13:14:48;11.77;;;5.25;;
12202;SDS011;6164;42.178;24.622;2023-04-24T13:17:14;7.72;;;4.55;;
12202;SDS011;6164;42.178;24.622;2023-04-24T13:19:42;6.35;;;4.30;;
12202;SDS011;6164;42.178;24.622;2023-04-24T13:22:10;8.95;;;4.40;;
12202;SDS011;6164;42.178;24.622;2023-04-24T13:24:38;6.30;;;3.88;;
12202;SDS011;6164;42.178;24.622;2023-04-24T13:27:06;9.98;;;4.40;;
12202;SDS011;6164;42.178;24.622;2023-04-24T13:29:35;6.97;;;4.75;;
12202;SDS011;6164;42.178;24.622;2023-04-24T13:32:02;16.10;;;4.90;;
12202;SDS011;6164;42.178;24.622;2023-04-24T13:34:29;20.05;;;5.38;;
12202;SDS011;6164;42.178;24.622;2023-04-24T13:36:56;7.97;;;4.30;;
12202;SDS011;6164;42.178;24.622;2023-04-24T13:39:24;5.97;;;4.32;;
12202;SDS011;6164;42.178;24.622;2023-04-24T13:41:51;6.57;;;4.20;;
12202;SDS011;6164;42.178;24.622;2023-04-24T13:44:19;5.00;;;4.32;;
12202;SDS011;6164;42.178;24.622;2023-04-24T13:46:49;5.07;;;4.50;;
12202;SDS011;6164;42.178;24.622;2023-04-24T13:49:19;6.60;;;4.22;;
12202;SDS011;6164;42.178;24.622;2023-04-24T13:51:46;4.82;;;3.85;;
12202;SDS011;6164;42.178;24.622;2023-04-24T13:54:13;6.18;;;4.35;;
12202;SDS011;6164;42.178;24.622;2023-04-24T13:56:41;12.02;;;4.60;;
12202;SDS011;6164;42.178;24.622;2023-04-24T13:59:08;5.68;;;4.13;;
12202;SDS011;6164;42.178;24.622;2023-04-24T14:01:35;8.00;;;4.45;;
12202;SDS011;6164;42.178;24.622;2023-04-24T14:04:03;7.07;;;4.15;;
12202;SDS011;6164;42.178;24.622;2023-04-24T14:06:30;4.93;;;4.28;;
12202;SDS011;6164;42.178;24.622;2023-04-24T14:08:57;5.65;;;4.20;;
12202;SDS011;6164;42.178;24.622;2023-04-24T14:11:24;5.18;;;4.47;;
12202;SDS011;6164;42.178;24.622;2023-04-24T14:13:52;5.30;;;4.22;;
12202;SDS011;6164;42.178;24.622;2023-04-24T14:16:21;13.88;;;4.35;;
12202;SDS011;6164;42.178;24.622;2023-04-24T14:18:48;6.07;;;4.13;;
12202;SDS011;6164;42.178;24.622;2023-04-24T14:21:16;5.40;;;4.45;;
12202;SDS011;6164;42.178;24.622;2023-04-24T14:23:43;5.88;;;4.22;;
12202;SDS011;6164;42.178;24.622;2023-04-24T14:26:10;6.15;;;4.07;;
12202;SDS011;6164;42.178;24.622;2023-04-24T14:28:37;8.73;;;4.15;;
12202;SDS011;6164;42.178;24.622;2023-04-24T14:31:04;5.20;;;4.43;;
12202;SDS011;6164;42.178;24.622;2023-04-24T14:33:31;6.07;;;4.00;;
12202;SDS011;6164;42.178;24.622;2023-04-24T14:35:58;4.75;;;4.00;;
12202;SDS011;6164;42.178;24.622;2023-04-24T14:38:26;5.20;;;3.92;;
12202;SDS011;6164;42.178;24.622;2023-04-24T14:40:53;6.05;;;4.35;;
12202;SDS011;6164;42.178;24.622;2023-04-24T14:43:19;9.45;;;4.07;;
12202;SDS011;6164;42.178;24.622;2023-04-24T14:45:46;13.32;;;4.55;;
12202;SDS011;6164;42.178;24.622;2023-04-24T14:48:13;5.82;;;4.10;;
12202;SDS011;6164;42.178;24.622;2023-04-24T14:50:41;14.30;;;5.35;;